Date,TemperatureHighF,TemperatureAvgF,TemperatureLowF,DewpointHighF,DewpointAvgF,DewpointLowF,HumidityHigh,HumidityAvg,HumidityLow,PressureMaxIn,PressureMinIn,WindSpeedMaxMPH,WindSpeedAvgMPH,GustSpeedMaxMPH,PrecipitationSumIn
2013-1-1,70,60,49,68,57,44,95,88,78,30.14,29.80,24,5,29,0.01
2013-1-2,49,43,41,44,40,37,92,87,79,30.26,30.11,21,3,21,0.00
2013-1-3,51,46,42,40,38,34,92,76,55,30.35,30.23,21,6,21,0.01
2013-1-4,51,48,45,40,40,38,80,72,64,30.39,30.28,24,7,24,0.00
2013-1-5,50,47,45,48,44,40,93,88,75,30.31,30.19,11,1,11,0.00
2013-1-6,66,51,38,52,44,37,96,79,43,30.30,30.19,19,1,21,0.00
2013-1-7,64,51,36,55,46,33,95,85,67,30.25,29.94,25,8,25,0.00
2013-1-8,68,61,54,67,60,53,98,97,95,29.95,29.72,27,11,27,0.00
2013-1-9,68,64,55,67,63,53,97,95,88,29.99,29.75,22,5,22,0.00
2013-1-10,69,57,49,55,52,48,97,83,54,30.05,29.96,8,1,9,0.00
2013-1-11,76,64,49,70,62,48,98,92,79,29.99,29.76,22,7,22,0.00
2013-1-12,78,73,70,72,71,69,96,92,81,29.79,29.57,30,14,30,0.00
2013-1-13,72,54,47,71,46,38,96,75,50,30.05,29.65,30,4,30,0.00
2013-1-14,49,46,43,43,39,36,93,78,67,30.14,30.02,23,7,23,0.00
2013-1-15,45,43,41,44,41,38,96,93,85,30.18,29.99,19,2,19,0.00
2013-1-16,60,45,34,38,31,21,85,62,23,30.33,30.16,17,3,17,0.00
2013-1-17,70,50,34,40,34,26,79,58,31,30.41,30.25,21,3,21,0.00
2013-1-18,66,51,37,47,42,33,90,71,45,30.45,30.26,21,4,21,0.00
2013-1-19,71,57,44,56,49,42,96,76,49,30.26,30.10,19,5,19,0.00
2013-1-20,74,59,44,58,51,42,96,79,45,30.19,30.04,16,4,18,0.00
2013-1-21,74,60,48,60,51,45,95,75,41,30.17,30.06,20,4,20,0.00
2013-1-22,74,59,45,59,52,43,95,78,48,30.24,30.11,20,5,22,0.00
2013-1-23,76,63,50,66,58,48,95,85,69,30.27,30.15,22,5,22,0.00
2013-1-24,82,68,58,66,63,57,97,84,53,30.24,30.07,23,8,23,0.00
2013-1-25,82,70,61,68,64,60,96,83,61,30.11,29.97,22,10,22,0.00
2013-1-26,80,70,64,66,64,62,94,82,56,30.08,29.98,25,11,25,0.00
2013-1-27,76,70,63,70,67,61,96,90,81,30.03,29.91,26,12,26,0.00
2013-1-28,79,73,71,71,70,69,93,88,77,30.01,29.83,29,16,29,0.00
2013-1-29,90,76,68,71,67,44,94,76,42,29.85,29.51,36,16,36,0.00
2013-1-30,70,60,40,44,23,8,44,26,10,30.20,29.70,26,4,26,0.00
2013-1-31,70,54,36,45,29,14,65,40,17,30.28,30.15,20,5,22,0.00
2013-2-1,72,59,49,53,46,35,81,63,27,30.29,30.15,20,4,20,0.00
2013-2-2,76,65,54,61,56,48,91,75,57,30.18,30.08,18,4,18,0.00
2013-2-3,76,63,51,61,56,49,97,81,43,30.24,29.96,19,6,19,0.05
2013-2-4,79,69,63,67,63,58,91,81,61,29.97,29.73,24,8,24,0.00
2013-2-5,88,70,58,72,64,57,98,82,36,29.90,29.79,22,5,22,0.00
2013-2-6,71,67,61,69,65,59,97,95,89,29.95,29.76,27,11,27,0.43
2013-2-7,75,65,58,72,64,57,98,95,83,29.94,29.82,11,2,11,0.00
2013-2-8,74,62,55,62,55,50,97,79,45,30.14,29.94,22,6,22,0.01
2013-2-9,72,66,56,70,64,54,96,94,90,30.01,29.73,26,11,26,0.03
2013-2-10,72,72,71,70,69,69,94,93,93,29.77,29.69,25,18,25,0.00
2013-2-11,71,68,56,69,66,55,96,93,90,29.87,29.69,25,18,25,0.00
2013-2-12,70,60,56,64,58,54,100,92,73,29.94,29.76,16,3,16,0.01
2013-2-13,66,56,46,56,44,36,93,65,39,30.12,29.92,20,3,20,0.00
2013-2-14,69,52,43,49,41,37,83,68,43,30.09,29.98,20,3,20,0.00
2013-2-15,74,58,45,57,47,41,94,68,40,30.26,29.99,29,7,29,0.00
2013-2-16,68,55,40,43,34,27,71,47,25,30.42,30.22,22,4,22,0.00
2013-2-17,73,58,38,58,47,34,88,67,41,30.22,29.95,31,12,31,0.00
2013-2-18,81,71,65,68,63,58,87,76,62,29.95,29.78,28,13,28,0.00
2013-2-19,71,63,59,63,50,42,92,63,40,30.15,29.92,35,16,35,0.00
2013-2-20,70,65,60,68,60,56,93,85,81,29.98,29.62,28,13,28,0.00
2013-2-21,83,73,61,71,63,49,93,72,44,29.76,29.53,32,10,32,0.00
2013-2-22,73,64,58,52,47,41,77,56,35,29.89,29.75,30,11,30,0.00
2013-2-23,71,59,51,51,45,39,86,59,46,29.98,29.82,23,5,23,0.00
2013-2-24,70,60,45,65,57,42,96,90,76,29.85,29.55,20,7,20,0.00
2013-2-25,74,67,51,68,41,15,97,50,11,29.84,29.47,34,10,34,0.00
2013-2-26,75,57,37,49,32,18,76,43,14,29.96,29.80,15,3,15,0.00
2013-2-27,78,60,45,55,40,24,90,54,18,30.14,29.82,27,3,27,0.00
2013-2-28,64,53,42,32,27,19,54,38,23,30.25,30.13,26,6,29,0.00
2013-3-1,76,53,40,44,29,20,69,42,13,30.23,30.06,22,2,23,0.00
2013-3-2,68,54,41,41,30,19,77,45,22,30.36,30.18,26,4,26,0.00
2013-3-3,76,58,37,53,40,20,75,53,29,30.23,29.94,28,10,28,0.00
2013-3-4,92,71,60,62,57,48,85,65,23,29.94,29.68,30,16,30,0.00
2013-3-5,73,63,45,63,42,19,94,53,19,30.26,29.73,42,8,42,0.00
2013-3-6,66,51,35,44,30,19,71,46,25,30.39,30.17,26,7,26,0.00
2013-3-7,76,61,45,61,53,37,86,73,58,30.18,30.05,32,11,32,0.00
2013-3-8,76,69,65,68,64,61,91,85,74,30.06,29.95,34,15,34,0.00
2013-3-9,77,72,69,68,66,64,89,84,74,29.95,29.59,35,18,35,0.00
2013-3-10,81,70,56,68,59,36,94,72,23,30.03,29.53,34,11,34,0.10
2013-3-11,75,59,45,40,31,20,71,39,16,30.11,29.95,21,3,21,0.00
2013-3-12,52,50,49,38,30,21,63,46,33,30.03,30.02,6,1,6,0.00
2013-3-13,77,65,46,57,48,38,91,57,28,30.35,30.25,25,10,25,0.00
2013-3-14,57,55,52,50,48,45,81,77,72,30.30,30.26,7,3,7,0.00
2013-3-15,69,67,66,60,59,58,80,76,69,30.01,29.98,24,16,24,0.00
2013-3-16,80,71,64,66,63,59,92,77,59,29.99,29.73,33,16,33,0.00
2013-3-17,84,74,66,70,67,64,93,80,61,29.78,29.59,25,14,25,0.00
2013-3-18,87,75,68,70,67,64,92,79,54,29.82,29.64,22,8,22,0.00
2013-3-19,81,70,58,69,64,54,92,83,66,29.92,29.75,22,9,22,0.00
2013-3-20,79,70,62,68,57,46,91,65,43,30.08,29.83,37,16,37,0.00
2013-3-21,75,70,62,66,61,52,87,75,60,29.98,29.61,24,12,25,0.00
2013-3-22,71,71,70,68,67,66,89,88,87,29.63,29.58,24,14,24,0.00
2013-3-27,68,65,54,58,52,44,77,63,51,30.26,30.13,24,14,24,0.00
2013-3-28,74,68,65,63,60,57,86,76,67,30.15,30.07,29,13,29,0.00
2013-3-29,78,71,62,66,64,60,93,79,62,30.11,29.99,30,13,30,0.00
2013-3-30,83,72,65,70,66,62,93,82,63,30.04,29.86,26,12,26,0.00
2013-3-31,84,74,68,71,68,66,93,82,63,29.91,29.72,28,13,31,0.00
2013-4-1,81,72,62,70,67,60,96,86,61,29.96,29.84,28,9,28,0.00
2013-4-2,82,74,70,72,70,68,94,86,71,29.93,29.71,23,11,23,0.01
2013-4-3,79,67,56,70,60,51,93,79,58,30.06,29.74,31,8,32,0.02
2013-4-4,78,63,54,53,49,44,85,63,35,30.13,29.99,22,4,22,0.00
2013-4-5,71,58,44,56,48,39,86,69,53,30.22,30.02,21,8,21,0.00
2013-4-6,81,70,61,62,60,55,86,72,50,30.05,29.82,30,13,30,0.00
2013-4-7,80,72,67,67,65,62,87,77,61,29.87,29.74,33,16,33,0.00
2013-4-8,79,75,71,71,69,66,91,83,72,29.76,29.60,30,17,30,0.00
2013-4-9,86,76,72,73,70,69,90,83,64,29.66,29.50,34,17,34,0.00
2013-4-10,84,70,58,75,64,49,91,79,58,29.79,29.55,31,13,32,0.00
2013-4-11,77,61,54,53,47,42,82,63,30,29.92,29.71,30,5,30,0.17
2013-4-12,80,60,48,60,52,46,92,79,38,29.92,29.80,24,5,24,0.00
2013-4-13,80,69,57,66,60,54,94,74,48,29.89,29.69,31,10,31,0.00
2013-4-14,88,74,61,73,67,58,94,80,59,29.74,29.58,27,8,27,0.00
2013-4-15,85,77,71,72,70,68,93,80,63,29.74,29.63,30,16,30,0.00
2013-4-16,80,76,74,74,72,69,93,86,74,29.81,29.69,29,15,29,0.00
2013-4-17,83,76,74,75,74,72,96,91,77,29.80,29.58,28,16,29,0.00
2013-4-18,81,70,59,75,64,48,95,80,55,30.00,29.55,29,11,29,0.00
2013-4-19,76,62,54,48,38,26,67,44,17,30.25,30.00,32,7,32,0.00
2013-4-20,75,61,44,54,45,36,77,57,33,30.16,29.97,26,9,26,0.00
2013-4-21,81,71,62,64,59,53,86,67,45,30.05,29.93,25,10,25,0.00
2013-4-22,82,72,59,68,65,56,93,80,60,30.02,29.85,27,10,27,0.00
2013-4-23,80,74,71,71,69,67,90,85,74,29.90,29.76,29,14,29,0.00
2013-4-24,74,62,49,71,57,46,92,84,71,30.14,29.90,29,7,29,0.05
2013-4-25,68,62,60,60,55,49,95,77,62,30.22,30.09,23,8,23,0.03
2013-4-26,78,72,62,73,70,60,97,92,83,30.11,29.96,27,12,27,0.00
2013-4-27,81,75,72,74,71,70,97,89,74,30.02,29.85,25,11,25,0.03
2013-4-28,76,71,65,72,68,63,95,91,87,29.97,29.78,29,8,29,0.95
2013-4-29,81,73,69,74,70,67,98,91,73,29.89,29.71,21,6,21,0.20
2013-4-30,83,73,65,74,70,63,96,89,67,29.77,29.64,20,7,22,0.06
2013-5-1,84,76,72,74,72,70,96,87,66,29.84,29.69,24,8,24,0.00
2013-5-2,79,68,55,71,61,44,95,77,59,30.22,29.69,42,5,42,0.07
2013-5-3,73,61,51,44,36,31,67,41,23,30.27,30.03,22,4,22,0.00
2013-5-4,82,65,50,55,44,36,77,50,20,30.05,29.84,25,7,25,0.00
2013-5-5,86,70,56,60,55,46,88,63,26,30.02,29.90,20,4,20,0.00
2013-5-6,81,69,57,62,58,53,91,69,48,30.06,29.90,26,6,26,0.00
2013-5-7,81,71,58,66,61,55,92,73,49,30.02,29.89,22,8,22,0.00
2013-5-8,82,75,69,70,68,66,91,80,62,29.96,29.84,32,13,32,0.00
2013-5-9,82,78,75,75,73,70,92,85,78,29.90,29.74,25,12,25,0.00
2013-5-10,85,77,75,77,72,67,95,85,64,29.89,29.75,32,11,32,0.00
2013-5-11,90,77,69,71,69,64,96,78,44,30.03,29.87,22,7,22,0.25
2013-5-12,77,69,65,72,65,61,94,86,70,30.11,29.98,14,4,18,1.48
2013-5-13,81,72,62,69,64,57,94,79,47,30.20,30.10,24,6,24,0.00
2013-5-14,84,75,68,73,70,65,93,84,67,30.16,29.99,28,9,28,0.00
2013-5-15,80,76,74,76,73,71,94,89,84,30.04,29.83,27,13,29,0.13
2013-5-16,89,78,73,77,73,71,92,86,69,29.83,29.67,26,15,26,0.00
2013-5-17,89,80,74,77,74,72,93,82,64,29.84,29.72,28,14,28,0.00
2013-5-18,92,82,76,76,73,67,92,77,47,29.85,29.76,30,14,30,0.00
2013-5-19,90,82,77,75,74,70,90,78,55,29.81,29.67,30,18,30,0.00
2013-5-20,89,81,78,77,75,73,90,82,66,29.78,29.66,30,17,31,0.00
2013-5-21,88,81,78,77,76,74,90,84,69,29.75,29.63,27,14,27,0.00
2013-5-22,90,82,78,78,76,74,93,82,61,29.83,29.71,21,8,21,0.01
2013-5-23,89,82,78,78,76,75,92,83,68,29.93,29.80,25,11,25,0.00
2013-5-24,88,81,74,77,75,70,93,84,65,30.02,29.90,29,12,29,0.13
2013-5-25,81,79,72,78,76,69,93,90,85,30.03,29.94,26,13,26,0.32
2013-5-26,86,80,77,76,74,73,92,82,67,30.02,29.90,26,12,26,0.00
2013-5-27,89,82,77,77,74,72,90,79,61,29.95,29.80,29,14,29,0.00
2013-5-28,89,82,79,77,75,74,87,79,65,29.85,29.72,35,19,35,0.00
2013-5-29,87,82,79,77,75,74,87,81,70,29.78,29.66,31,16,31,0.00
2013-5-30,90,83,79,78,76,75,88,81,68,29.77,29.69,29,15,29,0.00
2013-5-31,92,84,79,79,77,75,90,80,64,29.81,29.71,28,14,32,0.00
2013-6-1,94,84,80,80,77,76,87,80,60,29.82,29.72,29,15,29,0.00
2013-6-2,90,81,74,79,76,70,93,85,62,29.94,29.79,26,5,26,0.57
2013-6-3,89,80,72,76,74,70,96,82,62,29.90,29.76,19,4,19,0.01
2013-6-4,90,80,70,76,72,68,96,80,59,29.83,29.74,15,4,19,0.00
2013-6-5,92,82,73,77,74,70,95,77,54,29.80,29.71,20,6,20,0.00
2013-6-6,94,84,74,79,76,72,95,78,56,29.79,29.67,16,4,16,0.00
2013-6-7,90,79,70,76,72,67,92,80,59,29.86,29.77,22,6,22,0.44
2013-6-8,88,78,68,78,73,67,95,85,68,29.85,29.73,23,5,23,0.00
2013-6-9,91,83,78,80,76,67,91,81,65,29.87,29.75,21,6,21,0.04
2013-6-10,92,83,74,80,76,72,95,81,61,29.89,29.84,23,5,23,0.00
2013-6-11,90,83,76,80,76,73,92,80,66,29.95,29.88,21,6,21,0.00
2013-6-12,82,82,82,77,77,76,85,84,84,29.95,29.92,15,7,15,0.00
2013-6-14,90,85,82,81,79,78,87,81,73,29.91,29.81,21,9,21,0.00
2013-6-15,92,85,80,78,77,73,92,78,57,29.90,29.82,23,7,23,0.00
2013-6-16,91,84,79,81,78,76,92,81,70,29.93,29.85,26,9,26,0.00
2013-6-17,92,85,79,81,78,75,92,80,65,29.90,29.80,25,9,25,0.00
2013-6-18,92,84,77,79,77,74,94,79,61,29.90,29.80,21,8,21,0.00
2013-6-19,92,84,78,79,76,75,92,78,60,29.94,29.84,26,9,26,0.00
2013-6-20,91,85,79,79,77,76,92,79,64,29.97,29.87,23,10,25,0.00
2013-6-21,92,85,80,78,77,74,90,77,58,30.00,29.92,23,9,23,0.00
2013-6-22,93,85,78,79,76,72,92,77,53,29.96,29.85,27,9,27,0.00
2013-6-23,91,85,78,77,76,72,89,76,54,29.91,29.83,25,10,25,0.00
2013-6-24,92,86,81,79,77,75,87,76,60,29.95,29.85,27,12,27,0.00
2013-6-25,92,85,80,79,77,74,88,77,58,29.94,29.83,29,12,29,0.00
2013-6-26,94,85,80,80,78,76,90,79,60,29.90,29.83,26,11,26,0.00
2013-6-27,93,84,77,78,77,74,93,79,61,29.94,29.85,22,8,23,0.00
2013-6-28,98,86,76,78,75,69,94,72,42,29.92,29.76,19,5,19,0.00
2013-6-29,106,90,77,77,73,68,90,62,31,29.81,29.64,18,5,18,0.00
2013-6-30,88,80,72,76,72,69,93,77,62,29.89,29.70,30,2,33,0.46
2013-7-1,100,82,73,73,69,59,94,72,30,29.90,29.78,17,2,17,0.00
2013-7-2,98,84,74,74,68,54,92,63,26,29.97,29.85,15,2,16,0.01
2013-7-3,95,81,72,75,69,63,85,68,37,29.95,29.83,17,3,18,0.06
2013-7-4,93,81,69,77,71,61,95,75,38,29.91,29.83,21,3,21,0.00
2013-7-5,80,80,80,74,74,74,81,81,81,29.84,29.84,0,0,0,0.00
2013-7-6,80,79,77,74,73,71,84,82,81,29.84,29.83,9,1,9,0.00
2013-7-7,93,84,76,79,75,72,93,75,55,29.92,29.81,27,6,27,0.00
2013-7-8,90,83,74,79,77,71,94,81,67,30.04,29.91,23,7,24,0.48
2013-7-9,93,84,75,80,76,73,95,78,55,30.05,29.95,22,6,22,0.00
2013-7-10,93,83,78,79,76,74,94,81,58,30.01,29.88,22,4,22,0.00
2013-7-11,94,85,76,78,76,71,94,75,48,29.94,29.83,22,6,22,0.00
2013-7-12,94,85,74,78,74,70,94,73,47,29.89,29.82,22,5,22,0.00
2013-7-13,98,85,74,78,72,58,93,69,29,29.91,29.80,18,4,18,0.00
2013-7-14,94,85,77,77,75,70,91,74,48,29.85,29.76,24,7,24,0.00
2013-7-15,92,85,80,78,76,74,86,75,61,29.90,29.79,27,11,27,0.00
2013-7-16,89,82,76,79,76,73,93,81,66,29.95,29.87,26,9,26,0.25
2013-7-21,89,85,83,80,78,78,87,80,73,29.89,29.81,25,13,25,0.00
2013-7-22,93,86,81,80,79,77,91,79,60,29.92,29.83,26,12,26,0.00
2013-7-23,95,86,79,80,78,75,91,78,57,29.94,29.83,28,11,28,0.00
2013-7-24,92,85,80,79,78,75,93,79,62,29.91,29.80,22,10,22,0.00
2013-7-25,94,86,78,81,78,76,93,79,58,29.95,29.89,23,8,24,0.00
2013-7-26,95,86,80,81,78,76,91,78,58,29.96,29.83,25,11,25,0.00
2013-7-27,98,86,80,80,77,75,90,75,48,29.90,29.73,25,7,25,0.00
2013-7-28,94,86,81,79,78,76,89,76,58,29.87,29.79,28,11,28,0.00
2013-7-29,93,86,81,79,77,75,89,77,60,29.98,29.86,32,14,32,0.00
2013-7-30,94,86,81,79,78,76,90,78,62,30.02,29.93,28,13,28,0.00
2013-7-31,95,85,77,79,77,74,92,77,57,30.02,29.89,20,8,24,0.00
2013-8-1,97,85,78,78,76,69,93,77,44,29.95,29.85,21,7,21,0.00
2013-8-2,95,85,77,79,76,73,92,75,51,29.92,29.83,24,8,24,0.00
2013-8-3,94,86,78,79,77,74,90,76,60,29.95,29.87,28,9,28,0.00
2013-8-4,94,87,82,80,77,73,89,73,56,29.98,29.89,28,12,31,0.00
2013-8-5,96,89,81,79,77,74,90,68,54,29.96,29.84,27,14,27,0.00
2013-8-6,98,87,81,80,77,73,90,75,48,29.89,29.82,28,12,28,0.00